Time;durP1;ratioP1;P1;durP2;ratioP2;P2;SDS_P1;SDS_P2;PMS_P1;PMS_P2;Temp;Humidity;BMP_temperature;BMP_pressure;BME280_temperature;BME280_humidity;BME280_pressure;Samples;Min_cycle;Max_cycle;Signal;HPM_P1;HPM_P2
2021/12/17 00:00:09;;;;;;;634.25;133.70;;;5.60;99.90;;;;;;5026178;28;20018;-72
2021/12/17 00:03:09;;;;;;;1003.00;152.27;;;5.60;99.90;;;;;;5016128;28;20022;-72
2021/12/17 00:05:32;;;;;;;496.70;87.15;;;5.50;99.90;;;;;;5022430;28;20030;-73
2021/12/17 00:07:58;;;;;;;377.20;90.05;;;5.40;99.90;;;;;;5020767;28;20506;-72
2021/12/17 00:10:23;;;;;;;536.67;94.57;;;5.50;99.90;;;;;;5012237;28;20029;-72
2021/12/17 00:12:51;;;;;;;542.00;85.30;;;5.50;99.90;;;;;;5026505;28;20029;-72
2021/12/17 00:15:17;;;;;;;959.90;171.10;;;5.50;99.90;;;;;;5019114;28;20014;-73
2021/12/17 00:17:53;;;;;;;638.00;114.47;;;5.40;99.90;;;;;;5018452;28;20018;-72
2021/12/17 00:53:10;;;;;;;422.05;101.95;;;4.50;99.90;;;;;;5008129;28;20041;-72
2021/12/17 00:55:36;;;;;;;936.25;136.80;;;4.60;99.90;;;;;;5014288;28;20030;-72
2021/12/17 00:58:01;;;;;;;806.72;146.32;;;4.70;99.90;;;;;;5013250;28;20026;-72
2021/12/17 01:00:27;;;;;;;275.10;71.72;;;4.60;99.90;;;;;;5030495;28;20025;-72
2021/12/17 01:02:52;;;;;;;724.88;133.30;;;4.50;99.90;;;;;;5034156;28;20024;-72
2021/12/17 01:05:25;;;;;;;775.75;139.23;;;4.60;99.90;;;;;;5017721;28;20029;-72
2021/12/17 01:07:53;;;;;;;376.38;88.70;;;4.60;99.90;;;;;;5014368;28;20065;-72
2021/12/17 01:10:25;;;;;;;388.75;89.25;;;4.60;99.90;;;;;;5014537;28;20041;-74
2021/12/17 01:12:51;;;;;;;566.92;108.63;;;4.50;99.90;;;;;;5012759;28;20128;-73
2021/12/17 01:15:19;;;;;;;298.95;69.35;;;4.50;99.90;;;;;;5013655;28;20472;-73
2021/12/17 01:17:49;;;;;;;242.98;74.38;;;4.40;99.90;;;;;;5013922;28;20511;-73
2021/12/17 01:36:31;;;;;;;891.88;144.18;;;4.30;99.90;;;;;;5013857;28;20125;-74
2021/12/17 01:40:20;;;;;;;910.88;144.02;;;4.30;99.90;;;;;;5013246;28;20049;-73
2021/12/17 01:42:07;;;;;;;701.85;127.57;;;4.10;99.90;;;;;;5004259;28;20034;-73
2021/12/17 01:44:34;;;;;;;417.40;81.63;;;4.00;99.90;;;;;;5012076;28;20034;-72
2021/12/17 01:47:00;;;;;;;500.88;104.32;;;4.10;99.90;;;;;;5024831;28;20056;-72
2021/12/17 02:00:08;;;;;;;360.00;88.83;;;4.40;99.90;;;;;;5033449;28;20809;-74
2021/12/17 02:02:42;;;;;;;428.90;91.75;;;4.40;99.90;;;;;;5032708;28;20099;-74
2021/12/17 02:05:09;;;;;;;444.00;78.68;;;4.50;99.90;;;;;;5015111;28;20045;-74
2021/12/17 02:07:34;;;;;;;436.95;89.50;;;4.50;99.90;;;;;;5013159;28;20061;-74
2021/12/17 02:29:22;;;;;;;501.65;70.32;;;4.50;99.90;;;;;;5017075;28;20061;-72
2021/12/17 02:31:55;;;;;;;522.45;100.38;;;4.40;99.90;;;;;;5019748;28;20113;-73
2021/12/17 02:36:48;;;;;;;570.45;98.50;;;4.20;99.90;;;;;;5016621;28;20025;-72
2021/12/17 02:47:27;;;;;;;722.28;102.68;;;4.10;99.90;;;;;;5024180;28;20104;-72
2021/12/17 02:49:52;;;;;;;842.90;115.80;;;4.00;99.90;;;;;;5022740;28;20480;-72
2021/12/17 02:52:25;;;;;;;309.98;69.15;;;3.90;99.90;;;;;;5014345;28;20395;-72
2021/12/17 02:54:51;;;;;;;559.85;81.88;;;3.90;99.90;;;;;;5016475;28;20022;-72
2021/12/17 02:57:17;;;;;;;647.05;101.75;;;4.00;99.90;;;;;;5014531;28;20036;-72
2021/12/17 02:59:43;;;;;;;667.78;113.63;;;3.80;99.90;;;;;;5027272;28;20384;-72
2021/12/17 03:02:10;;;;;;;454.55;66.97;;;3.80;99.90;;;;;;5020120;28;20022;-72
2021/12/17 03:04:39;;;;;;;507.00;78.30;;;3.80;99.90;;;;;;5025998;28;20057;-72
2021/12/17 03:07:05;;;;;;;556.38;91.32;;;4.10;99.90;;;;;;5023943;28;20546;-73
2021/12/17 03:10:02;;;;;;;676.97;105.38;;;3.90;99.90;;;;;;5023547;28;20074;-72
2021/12/17 03:12:38;;;;;;;603.58;81.88;;;3.80;99.90;;;;;;5012897;28;20034;-73
2021/12/17 03:25:47;;;;;;;265.92;52.38;;;4.00;99.90;;;;;;5011430;28;20196;-74
2021/12/17 03:28:12;;;;;;;118.90;41.88;;;4.10;99.90;;;;;;5012600;28;20030;-74
2021/12/17 03:30:38;;;;;;;358.73;53.65;;;4.10;99.90;;;;;;5026622;28;20097;-71
2021/12/17 03:33:03;;;;;;;141.93;38.55;;;4.00;99.90;;;;;;5025756;28;20022;-71
2021/12/17 03:35:29;;;;;;;189.18;44.60;;;3.90;99.90;;;;;;5016506;28;20018;-71
2021/12/17 03:37:55;;;;;;;261.65;50.40;;;3.90;99.90;;;;;;5023290;28;20022;-72
2021/12/17 03:40:20;;;;;;;156.02;42.83;;;4.00;99.90;;;;;;5023220;28;20096;-72
2021/12/17 03:42:49;;;;;;;204.73;51.05;;;4.00;99.90;;;;;;5019431;28;20393;-71
2021/12/17 03:45:17;;;;;;;185.90;45.80;;;4.00;99.90;;;;;;5022937;28;20653;-71
2021/12/17 03:47:43;;;;;;;147.18;43.08;;;3.90;99.90;;;;;;5020655;28;20026;-71
2021/12/17 03:50:09;;;;;;;204.82;45.13;;;4.00;99.90;;;;;;5009599;28;20025;-71
2021/12/17 03:52:35;;;;;;;189.38;40.88;;;4.00;99.90;;;;;;5011038;28;20037;-71
2021/12/17 03:55:00;;;;;;;201.70;38.17;;;4.00;99.90;;;;;;5013489;28;20022;-71
2021/12/17 03:57:26;;;;;;;281.45;51.83;;;3.80;99.90;;;;;;5021915;28;20030;-71
2021/12/17 03:59:52;;;;;;;314.92;57.10;;;3.80;99.90;;;;;;5027317;28;20025;-70
2021/12/17 04:02:17;;;;;;;285.92;46.50;;;3.80;99.90;;;;;;5020582;28;20033;-71
2021/12/17 04:04:44;;;;;;;200.55;41.03;;;3.90;99.90;;;;;;5029958;28;20044;-71
2021/12/17 04:07:09;;;;;;;303.02;49.85;;;3.90;99.90;;;;;;5023394;28;20026;-71
2021/12/17 04:09:35;;;;;;;259.08;56.63;;;4.00;99.90;;;;;;5025973;28;20030;-71
2021/12/17 04:12:02;;;;;;;272.63;47.30;;;4.10;99.90;;;;;;5025985;28;20035;-71
2021/12/17 04:14:42;;;;;;;200.88;40.40;;;4.00;99.90;;;;;;5025102;28;20056;-72
2021/12/17 04:17:08;;;;;;;312.90;52.58;;;4.00;99.90;;;;;;5019772;28;20027;-72
2021/12/17 04:19:34;;;;;;;292.60;44.35;;;4.00;99.90;;;;;;5026569;28;20014;-72
2021/12/17 04:22:00;;;;;;;319.48;54.20;;;4.00;99.90;;;;;;5038933;28;20068;-71
2021/12/17 04:24:26;;;;;;;346.33;51.83;;;3.90;99.90;;;;;;5026252;28;20029;-71
2021/12/17 04:26:52;;;;;;;280.25;52.95;;;3.80;99.90;;;;;;5025728;28;20026;-70
2021/12/17 04:29:19;;;;;;;241.15;49.63;;;3.80;99.90;;;;;;5025165;28;20079;-71
2021/12/17 04:31:51;;;;;;;245.43;45.30;;;3.70;99.90;;;;;;5022502;28;20468;-72
2021/12/17 04:34:18;;;;;;;165.48;40.00;;;3.70;99.90;;;;;;5027031;28;20029;-72
2021/12/17 04:36:46;;;;;;;146.05;34.47;;;3.70;99.90;;;;;;5018866;28;20017;-70
2021/12/17 04:39:11;;;;;;;532.85;66.68;;;3.70;99.90;;;;;;5027883;28;20614;-72
2021/12/17 04:44:27;;;;;;;541.17;59.35;;;3.40;99.90;;;;;;5027479;28;20476;-71
2021/12/17 04:57:18;;;;;;;327.55;54.53;;;3.40;99.90;;;;;;5029768;28;20056;-70
2021/12/17 04:57:54;;;;;;;482.87;69.93;;;3.30;99.90;;;;;;5023578;28;20052;-70
2021/12/17 05:00:27;;;;;;;342.13;54.30;;;3.20;99.90;;;;;;5026506;28;20053;-71
2021/12/17 05:02:55;;;;;;;405.35;63.85;;;3.10;99.90;;;;;;5024713;28;20420;-71
2021/12/17 05:05:26;;;;;;;188.88;29.00;;;3.10;99.90;;;;;;5024867;28;20036;-71
2021/12/17 05:08:10;;;;;;;252.02;40.13;;;3.10;99.90;;;;;;5025132;28;20022;-71
2021/12/17 05:18:46;;;;;;;213.27;29.52;;;2.90;99.90;;;;;;5014065;28;20033;-71
2021/12/17 05:21:12;;;;;;;407.50;49.90;;;2.90;99.90;;;;;;5009952;28;20029;-71
2021/12/17 05:23:42;;;;;;;400.83;41.40;;;2.60;99.90;;;;;;5033398;28;20104;-71
2021/12/17 05:26:11;;;;;;;346.17;43.00;;;2.80;99.90;;;;;;5024712;28;20049;-73
2021/12/17 05:28:37;;;;;;;446.17;57.72;;;2.70;99.90;;;;;;5017894;28;20036;-73
2021/12/17 05:31:03;;;;;;;384.73;51.30;;;2.50;99.90;;;;;;5020155;28;20021;-73
2021/12/17 05:33:29;;;;;;;408.92;55.50;;;2.40;99.90;;;;;;5013787;28;20465;-72
2021/12/17 05:35:56;;;;;;;257.90;36.65;;;2.30;99.90;;;;;;5013691;28;20109;-72
2021/12/17 05:38:23;;;;;;;304.77;38.67;;;2.40;99.90;;;;;;5013765;28;20029;-71
2021/12/17 05:40:49;;;;;;;504.85;49.70;;;2.70;99.90;;;;;;5027138;28;20108;-71
2021/12/17 05:43:16;;;;;;;302.15;41.42;;;2.60;99.90;;;;;;5014809;28;20053;-71
2021/12/17 05:48:25;;;;;;;310.52;34.75;;;2.40;99.90;;;;;;5013780;28;20026;-72
2021/12/17 05:50:58;;;;;;;398.45;40.83;;;2.50;99.90;;;;;;5012164;28;20018;-71
2021/12/17 05:53:24;;;;;;;413.88;50.95;;;2.30;99.90;;;;;;5013294;28;20092;-72
2021/12/17 05:55:50;;;;;;;203.23;22.90;;;2.40;99.90;;;;;;5011746;28;20502;-71
2021/12/17 05:58:16;;;;;;;439.65;49.95;;;2.40;99.90;;;;;;5013371;28;20400;-72
2021/12/17 06:00:43;;;;;;;297.10;39.33;;;2.30;99.90;;;;;;5012670;28;20068;-70
2021/12/17 06:03:09;;;;;;;323.25;37.83;;;2.30;99.90;;;;;;5012217;28;20053;-72
2021/12/17 06:05:35;;;;;;;188.05;25.27;;;2.20;99.90;;;;;;5015180;28;20061;-74
2021/12/17 06:08:00;;;;;;;114.43;19.17;;;2.20;99.90;;;;;;5020750;28;20542;-72
2021/12/17 06:10:26;;;;;;;438.08;43.13;;;2.40;99.90;;;;;;5016033;28;20550;-72
2021/12/17 06:12:52;;;;;;;380.98;45.25;;;2.10;99.90;;;;;;5018765;28;20033;-72
2021/12/17 06:15:20;;;;;;;322.42;35.95;;;2.00;99.90;;;;;;5013673;28;20084;-72
2021/12/17 06:17:46;;;;;;;319.83;30.20;;;2.20;99.90;;;;;;5009836;28;20733;-72
2021/12/17 06:20:15;;;;;;;122.85;20.08;;;2.30;99.90;;;;;;5024452;28;20022;-71
2021/12/17 06:22:41;;;;;;;316.95;34.00;;;2.40;99.90;;;;;;5024155;28;20431;-73
2021/12/17 06:25:08;;;;;;;184.63;22.52;;;2.50;99.90;;;;;;5032381;28;20060;-73
2021/12/17 06:27:35;;;;;;;196.95;23.58;;;2.50;99.90;;;;;;5032621;28;20036;-72
2021/12/17 06:30:02;;;;;;;116.97;20.52;;;2.70;99.90;;;;;;5012372;28;20025;-73
2021/12/17 06:32:28;;;;;;;276.00;40.15;;;2.70;99.90;;;;;;5012455;28;20029;-72
2021/12/17 06:34:53;;;;;;;155.95;27.35;;;2.70;99.90;;;;;;5030689;28;20103;-71
2021/12/17 06:37:20;;;;;;;125.38;23.10;;;2.60;99.90;;;;;;5031105;28;20117;-72
2021/12/17 06:39:46;;;;;;;201.40;28.25;;;2.70;99.90;;;;;;5013962;28;20026;-71
2021/12/17 06:42:12;;;;;;;218.57;33.58;;;2.60;99.90;;;;;;5012535;28;20029;-71
2021/12/17 06:44:39;;;;;;;362.58;28.27;;;2.50;99.90;;;;;;5016279;28;20030;-72
2021/12/17 06:47:39;;;;;;;279.60;27.52;;;2.40;99.90;;;;;;5032238;28;20104;-72
2021/12/17 06:54:36;;;;;;;141.15;21.30;;;2.60;99.90;;;;;;4999856;28;20404;-71
2021/12/17 06:56:15;;;;;;;340.45;37.55;;;2.70;99.90;;;;;;5012050;28;20044;-72
2021/12/17 06:58:54;;;;;;;400.95;39.88;;;2.50;99.90;;;;;;5012216;28;20036;-72
2021/12/17 07:07:39;;;;;;;528.33;56.22;;;2.50;99.90;;;;;;5014160;28;20500;-72
2021/12/17 07:10:13;;;;;;;305.75;40.10;;;2.50;99.90;;;;;;5009549;28;20153;-72
2021/12/17 07:17:58;;;;;;;198.75;25.63;;;2.50;99.90;;;;;;5011649;28;20404;-71
2021/12/17 07:29:54;;;;;;;163.05;25.27;;;2.30;99.90;;;;;;5011926;28;20160;-73
2021/12/17 07:33:46;;;;;;;186.55;25.10;;;2.50;99.90;;;;;;5021346;28;20032;-70
2021/12/17 07:36:17;;;;;;;168.80;26.83;;;2.50;99.90;;;;;;5021711;28;20011;-70
2021/12/17 07:38:49;;;;;;;103.60;21.25;;;2.30;99.90;;;;;;5011591;28;20018;-70
2021/12/17 07:41:15;;;;;;;167.90;25.92;;;2.30;99.90;;;;;;5016268;28;20091;-72
2021/12/17 07:43:51;;;;;;;299.48;38.60;;;2.40;99.90;;;;;;5020050;28;20121;-71
2021/12/17 07:46:18;;;;;;;306.90;42.00;;;2.40;99.90;;;;;;5010082;28;20487;-72
2021/12/17 07:48:43;;;;;;;228.90;27.42;;;2.40;99.90;;;;;;5011598;28;20022;-71
2021/12/17 07:51:11;;;;;;;261.15;32.60;;;2.40;99.90;;;;;;5011668;28;20030;-71
2021/12/17 07:53:37;;;;;;;175.32;30.38;;;2.40;99.90;;;;;;5024185;28;20024;-71
2021/12/17 07:56:05;;;;;;;155.20;37.10;;;2.50;99.90;;;;;;5030008;28;20018;-71
2021/12/17 07:58:31;;;;;;;40.47;21.02;;;2.50;99.90;;;;;;5023619;28;20424;-72
2021/12/17 08:00:58;;;;;;;88.78;27.95;;;2.60;99.90;;;;;;5010192;28;20033;-72
2021/12/17 08:03:24;;;;;;;121.80;26.88;;;2.80;99.90;;;;;;5011516;28;20026;-72
2021/12/17 08:05:51;;;;;;;121.60;26.08;;;2.70;99.90;;;;;;5017342;28;20372;-72
2021/12/17 08:08:17;;;;;;;70.70;22.85;;;2.80;99.90;;;;;;5022123;28;20018;-72
2021/12/17 08:10:43;;;;;;;45.15;20.80;;;2.60;99.90;;;;;;5011223;28;20080;-72
2021/12/17 08:13:16;;;;;;;62.90;23.40;;;2.60;99.90;;;;;;5011501;28;20395;-72
2021/12/17 08:15:49;;;;;;;100.93;47.33;;;2.60;99.90;;;;;;5009888;28;20018;-71
2021/12/17 08:26:12;;;;;;;54.20;25.40;;;2.70;99.90;;;;;;5011029;28;20385;-71
2021/12/17 08:28:54;;;;;;;;;;;2.90;99.90;;;;;;5010530;28;20505;-71
2021/12/17 08:31:20;;;;;;;38.92;23.17;;;2.70;99.90;;;;;;5011243;28;19913;-72
2021/12/17 08:33:46;;;;;;;36.97;21.10;;;2.70;99.90;;;;;;5010714;28;20498;-71
2021/12/17 08:36:12;;;;;;;46.25;23.95;;;2.80;99.90;;;;;;5009671;28;20018;-72
2021/12/17 08:38:38;;;;;;;31.02;19.60;;;2.80;99.90;;;;;;5011156;28;20010;-71
2021/12/17 08:41:04;;;;;;;50.00;24.80;;;2.80;99.90;;;;;;5013815;28;20369;-71
2021/12/17 08:43:30;;;;;;;41.42;22.92;;;2.70;99.90;;;;;;5022415;28;20507;-71
2021/12/17 08:45:56;;;;;;;53.92;26.27;;;2.80;99.90;;;;;;5010655;28;20100;-71
2021/12/17 08:48:21;;;;;;;57.30;26.92;;;2.90;99.90;;;;;;5016352;28;20104;-71
2021/12/17 08:50:47;;;;;;;40.75;23.42;;;2.90;99.90;;;;;;5014336;28;20106;-71
2021/12/17 08:53:12;;;;;;;49.60;26.15;;;2.80;99.90;;;;;;5014275;28;20159;-71
2021/12/17 08:55:38;;;;;;;43.10;24.25;;;2.70;99.90;;;;;;5014144;28;20014;-71
2021/12/17 08:58:04;;;;;;;34.15;21.63;;;2.80;99.90;;;;;;5013387;28;20030;-72
2021/12/17 09:00:30;;;;;;;42.05;23.85;;;2.90;99.90;;;;;;5014377;28;20157;-71
2021/12/17 09:02:59;;;;;;;39.78;23.17;;;2.90;99.90;;;;;;5023345;28;20093;-72
2021/12/17 09:05:25;;;;;;;53.75;28.33;;;2.90;99.90;;;;;;5018015;28;20026;-71
2021/12/17 09:07:51;;;;;;;40.95;24.75;;;2.90;99.90;;;;;;5023758;28;20148;-71
2021/12/17 09:10:21;;;;;;;44.92;24.85;;;2.90;99.90;;;;;;5013384;28;20092;-72
2021/12/17 09:12:47;;;;;;;65.63;29.95;;;3.00;99.90;;;;;;5012859;28;20041;-72
2021/12/17 09:15:12;;;;;;;53.50;27.80;;;2.90;99.90;;;;;;5013895;28;20034;-71
2021/12/17 09:17:38;;;;;;;61.47;29.45;;;2.80;99.90;;;;;;5014146;28;20033;-71
2021/12/17 09:20:06;;;;;;;121.15;39.67;;;3.10;99.90;;;;;;5014064;28;20389;-71
2021/12/17 09:22:34;;;;;;;87.47;34.00;;;2.90;99.90;;;;;;5014094;28;20484;-72
2021/12/17 09:25:00;;;;;;;40.30;23.92;;;3.00;99.90;;;;;;5013888;28;20544;-71
2021/12/17 09:27:26;;;;;;;67.03;31.40;;;3.00;99.90;;;;;;5013955;28;20095;-71
2021/12/17 09:29:51;;;;;;;91.65;35.38;;;3.30;99.90;;;;;;5013938;28;20524;-71
2021/12/17 09:32:17;;;;;;;64.53;29.55;;;3.10;99.90;;;;;;5013891;28;20056;-71
2021/12/17 09:34:42;;;;;;;56.83;28.35;;;3.10;99.90;;;;;;5013498;28;20060;-69
2021/12/17 09:37:08;;;;;;;77.82;34.85;;;3.30;99.90;;;;;;5013904;28;20026;-70
2021/12/17 09:39:33;;;;;;;103.50;38.78;;;3.20;99.90;;;;;;5013750;28;20018;-72
2021/12/17 09:41:59;;;;;;;94.18;37.55;;;3.10;99.90;;;;;;5013719;28;20029;-71
2021/12/17 09:44:25;;;;;;;71.18;33.50;;;3.30;99.90;;;;;;5012289;28;20026;-71
2021/12/17 09:46:51;;;;;;;82.57;35.92;;;3.20;99.90;;;;;;5023897;28;20034;-71
2021/12/17 09:49:17;;;;;;;138.80;43.67;;;3.20;99.90;;;;;;5016533;28;20048;-71
2021/12/17 09:51:44;;;;;;;169.63;44.90;;;3.20;99.90;;;;;;5023613;28;20029;-71
2021/12/17 09:54:11;;;;;;;120.70;39.92;;;3.30;99.90;;;;;;5023226;28;20053;-71
2021/12/17 09:56:37;;;;;;;105.47;36.42;;;3.30;99.90;;;;;;5026682;28;20148;-71
2021/12/17 09:59:03;;;;;;;155.18;44.13;;;3.30;99.90;;;;;;5020233;28;20116;-71
2021/12/17 10:01:29;;;;;;;242.48;47.38;;;3.20;99.90;;;;;;5024655;28;20097;-71
2021/12/17 10:04:17;;;;;;;78.25;30.80;;;3.10;99.90;;;;;;5023449;28;20044;-71
2021/12/17 10:06:44;;;;;;;322.20;50.17;;;3.10;99.90;;;;;;5023567;28;20028;-72
2021/12/17 10:09:10;;;;;;;434.58;62.90;;;3.10;99.90;;;;;;5020796;28;20503;-71
2021/12/17 10:11:35;;;;;;;333.58;58.75;;;3.30;99.90;;;;;;5022298;28;20034;-71
2021/12/17 10:14:18;;;;;;;128.95;41.85;;;3.20;99.90;;;;;;5023135;28;20452;-71
2021/12/17 10:16:44;;;;;;;176.20;44.97;;;3.30;99.90;;;;;;5014666;28;20026;-72
2021/12/17 10:19:09;;;;;;;117.70;43.60;;;3.20;99.90;;;;;;5024579;28;20018;-71
2021/12/17 10:21:38;;;;;;;85.75;37.83;;;3.20;99.90;;;;;;5021467;28;20026;-72
2021/12/17 10:24:04;;;;;;;200.25;53.80;;;3.30;99.90;;;;;;5024382;28;20021;-72
2021/12/17 10:26:41;;;;;;;140.13;46.63;;;3.30;99.90;;;;;;5024279;28;20048;-72
2021/12/17 10:29:07;;;;;;;181.70;53.45;;;3.40;99.90;;;;;;5026961;28;20021;-71
2021/12/17 10:31:36;;;;;;;127.03;40.40;;;3.40;99.90;;;;;;5022417;28;20363;-72
2021/12/17 10:34:04;;;;;;;152.60;48.33;;;3.40;99.90;;;;;;5008459;28;20480;-71
2021/12/17 10:36:34;;;;;;;92.82;38.92;;;3.40;99.90;;;;;;5022381;28;20034;-72
2021/12/17 10:39:11;;;;;;;102.20;40.50;;;3.40;99.90;;;;;;5014416;28;20022;-72
2021/12/17 10:41:47;;;;;;;93.25;36.95;;;3.50;99.90;;;;;;5017939;28;20018;-71
2021/12/17 10:44:13;;;;;;;100.93;41.63;;;3.50;99.90;;;;;;5024490;28;20033;-72
2021/12/17 10:46:55;;;;;;;53.58;33.05;;;3.60;99.90;;;;;;5026635;28;20022;-71
2021/12/17 10:49:25;;;;;;;48.75;30.60;;;3.50;99.90;;;;;;5019562;28;20381;-71
2021/12/17 10:52:07;;;;;;;37.88;26.55;;;3.50;99.90;;;;;;5025616;28;20075;-71
2021/12/17 10:54:33;;;;;;;35.22;26.55;;;3.50;99.90;;;;;;5016861;28;20021;-72
2021/12/17 10:56:59;;;;;;;30.45;23.58;;;3.70;99.90;;;;;;5025669;28;20014;-71
2021/12/17 10:59:31;;;;;;;23.80;21.00;;;3.50;99.90;;;;;;5026686;28;20017;-71
2021/12/17 11:02:00;;;;;;;22.65;19.80;;;3.70;99.90;;;;;;5019134;28;20021;-70
2021/12/17 11:04:34;;;;;;;21.65;19.30;;;3.80;99.90;;;;;;5024966;28;20018;-71
2021/12/17 11:07:04;;;;;;;20.35;18.10;;;3.90;99.90;;;;;;5021300;28;20026;-71
2021/12/17 11:09:47;;;;;;;33.00;25.52;;;3.70;99.90;;;;;;5016103;28;20018;-71
2021/12/17 11:12:35;;;;;;;36.78;27.85;;;3.70;99.90;;;;;;5024182;28;20033;-71
2021/12/17 11:15:27;;;;;;;34.53;26.13;;;3.70;99.90;;;;;;5012239;28;20055;-72
2021/12/17 11:17:58;;;;;;;36.85;27.08;;;3.60;99.90;;;;;;5020727;28;20021;-72
2021/12/17 11:20:30;;;;;;;38.25;28.50;;;3.50;99.90;;;;;;5020252;28;20489;-72
2021/12/17 11:23:03;;;;;;;38.88;28.42;;;3.50;99.90;;;;;;5026827;28;20029;-72
2021/12/17 11:25:29;;;;;;;43.47;29.65;;;3.50;99.90;;;;;;5025769;28;20526;-72
2021/12/17 11:27:54;;;;;;;39.17;28.33;;;3.50;99.90;;;;;;5020526;28;20034;-72
2021/12/17 11:30:26;;;;;;;44.13;30.08;;;3.50;99.90;;;;;;5024728;28;20529;-72
2021/12/17 11:32:53;;;;;;;45.50;30.38;;;3.50;99.90;;;;;;5020761;28;20388;-72
2021/12/17 11:35:21;;;;;;;44.35;31.33;;;3.50;99.90;;;;;;5023353;28;20018;-72
2021/12/17 11:37:49;;;;;;;49.83;31.70;;;3.40;99.90;;;;;;5022639;28;20017;-72
2021/12/17 11:40:29;;;;;;;49.78;32.78;;;3.60;99.90;;;;;;5023369;28;20538;-72
2021/12/17 11:43:23;;;;;;;49.78;31.98;;;3.50;99.90;;;;;;5019633;28;20030;-72
2021/12/17 11:45:58;;;;;;;44.05;31.48;;;3.70;99.90;;;;;;5020607;28;20542;-73
2021/12/17 11:48:25;;;;;;;43.70;30.60;;;3.60;99.90;;;;;;5022356;28;20357;-72
2021/12/17 11:51:02;;;;;;;51.35;33.88;;;3.80;99.90;;;;;;5020875;28;20136;-73
2021/12/17 11:53:28;;;;;;;48.42;33.40;;;3.90;99.90;;;;;;5023150;28;20041;-71
2021/12/17 11:55:58;;;;;;;43.42;31.73;;;3.70;99.90;;;;;;5020842;28;20030;-72
2021/12/17 11:58:44;;;;;;;41.38;31.88;;;3.80;99.90;;;;;;5021954;28;20105;-72
2021/12/17 12:01:10;;;;;;;39.70;29.98;;;3.90;99.90;;;;;;5014593;28;20392;-72
2021/12/17 12:03:36;;;;;;;32.08;26.75;;;3.90;99.90;;;;;;5022045;28;20068;-71
2021/12/17 12:06:01;;;;;;;35.70;27.27;;;3.90;99.90;;;;;;5022847;28;20040;-71
2021/12/17 12:09:05;;;;;;;33.00;26.77;;;4.00;99.90;;;;;;5018620;28;20369;-71
2021/12/17 12:11:27;;;;;;;29.80;25.13;;;4.20;99.90;;;;;;5011218;28;20109;-71
2021/12/17 12:13:54;;;;;;;28.10;25.02;;;4.20;99.90;;;;;;5020500;28;20030;-71
2021/12/17 12:16:23;;;;;;;26.40;23.60;;;4.10;99.90;;;;;;5013005;28;20101;-72
2021/12/17 12:18:52;;;;;;;26.50;23.08;;;3.90;99.90;;;;;;5020018;28;20492;-71
2021/12/17 12:21:31;;;;;;;28.02;24.48;;;4.10;99.90;;;;;;5021856;28;20053;-72
2021/12/17 12:24:13;;;;;;;23.45;20.92;;;4.00;99.90;;;;;;5023470;28;20026;-71
2021/12/17 12:26:49;;;;;;;23.60;21.10;;;4.00;99.90;;;;;;5025288;28;20088;-71
2021/12/17 12:29:17;;;;;;;20.98;18.75;;;4.00;99.90;;;;;;5027044;28;20112;-72
2021/12/17 12:31:49;;;;;;;19.63;17.70;;;4.20;99.90;;;;;;5022598;28;20022;-71
2021/12/17 12:34:18;;;;;;;22.20;19.80;;;4.30;99.90;;;;;;5028256;28;20504;-72
2021/12/17 12:36:56;;;;;;;20.83;18.73;;;4.30;99.90;;;;;;5024216;28;20030;-72
2021/12/17 12:39:35;;;;;;;19.60;17.58;;;4.40;99.90;;;;;;5018665;28;20079;-73
2021/12/17 12:42:20;;;;;;;17.40;15.48;;;4.30;99.90;;;;;;5014904;28;20022;-71
2021/12/17 12:44:46;;;;;;;17.35;15.65;;;4.20;99.90;;;;;;5021900;28;20033;-72
2021/12/17 12:47:20;;;;;;;16.30;14.70;;;4.40;99.90;;;;;;5020161;28;20081;-72
2021/12/17 12:49:51;;;;;;;17.40;15.65;;;4.30;99.90;;;;;;5025397;28;20030;-75
2021/12/17 12:52:31;;;;;;;18.10;16.30;;;4.40;99.90;;;;;;5013445;28;20030;-71
2021/12/17 12:54:58;;;;;;;18.00;16.13;;;4.50;99.90;;;;;;5014501;28;20025;-74
2021/12/17 12:57:32;;;;;;;15.93;14.32;;;4.50;99.90;;;;;;5014629;28;20534;-73
2021/12/17 13:00:06;;;;;;;13.30;12.00;;;4.40;99.90;;;;;;5014347;28;20030;-72
2021/12/17 13:02:32;;;;;;;13.18;11.88;;;4.30;99.90;;;;;;5013105;28;20026;-72
2021/12/17 13:04:59;;;;;;;14.60;13.15;;;4.40;99.90;;;;;;5014363;28;20388;-72
2021/12/17 13:07:35;;;;;;;14.05;12.75;;;4.30;99.90;;;;;;5020597;28;20034;-69
2021/12/17 13:10:14;;;;;;;12.00;10.90;;;4.40;99.90;;;;;;5006212;23;20074;-73
2021/12/17 13:12:46;;;;;;;13.65;12.35;;;4.30;99.90;;;;;;4974371;28;20039;-73
2021/12/17 13:15:31;;;;;;;13.60;12.20;;;4.30;99.90;;;;;;4978649;28;20117;-73
2021/12/17 13:23:56;;;;;;;12.73;11.52;;;4.30;99.90;;;;;;4956286;28;20062;-71
2021/12/17 13:26:24;;;;;;;12.93;11.70;;;4.20;99.90;;;;;;4957866;28;20546;-71
2021/12/17 13:28:51;;;;;;;11.98;10.77;;;4.20;99.90;;;;;;4975118;28;20030;-71
2021/12/17 13:31:32;;;;;;;12.65;11.35;;;4.20;99.90;;;;;;4963250;28;20039;-72
2021/12/17 13:33:58;;;;;;;12.48;11.27;;;4.30;99.90;;;;;;4966313;28;20034;-72
2021/12/17 13:36:24;;;;;;;11.73;10.60;;;4.30;99.90;;;;;;4956935;28;20031;-72
2021/12/17 13:38:59;;;;;;;12.40;10.73;;;4.40;99.90;;;;;;4955424;28;20019;-72
2021/12/17 13:41:41;;;;;;;13.50;12.13;;;4.40;99.90;;;;;;4968650;28;20031;-72
2021/12/17 13:44:29;;;;;;;9.82;9.00;;;4.50;99.90;;;;;;4968350;28;20046;-72
2021/12/17 13:47:16;;;;;;;10.55;9.60;;;4.40;99.90;;;;;;4977375;28;20420;-72
2021/12/17 13:49:48;;;;;;;10.75;9.75;;;4.30;99.90;;;;;;4945129;28;20397;-72
2021/12/17 13:52:14;;;;;;;11.55;10.40;;;4.30;99.90;;;;;;4961914;28;20023;-72
2021/12/17 13:54:40;;;;;;;9.82;8.93;;;4.30;99.90;;;;;;4955198;28;20039;-72
2021/12/17 13:57:06;;;;;;;10.50;9.50;;;4.30;99.90;;;;;;4955489;28;20027;-72
2021/12/17 13:59:36;;;;;;;10.77;9.68;;;4.40;99.90;;;;;;4974526;28;20074;-72
2021/12/17 14:02:13;;;;;;;11.23;10.15;;;4.40;99.90;;;;;;4955211;28;20032;-72
2021/12/17 14:04:42;;;;;;;10.63;9.63;;;4.40;99.90;;;;;;4963661;28;20363;-72
2021/12/17 14:07:10;;;;;;;10.20;9.20;;;4.40;99.90;;;;;;4958207;28;20499;-72
2021/12/17 14:09:36;;;;;;;9.88;8.88;;;4.30;99.90;;;;;;4968980;28;20035;-73
2021/12/17 14:12:10;;;;;;;9.20;8.40;;;4.30;99.90;;;;;;4955061;28;20042;-72
2021/12/17 14:14:36;;;;;;;8.90;8.10;;;4.30;99.90;;;;;;4958242;28;20027;-72
2021/12/17 14:17:04;;;;;;;9.70;8.85;;;4.20;99.90;;;;;;4959222;28;20085;-72
2021/12/17 14:19:38;;;;;;;10.45;9.38;;;4.10;99.90;;;;;;4966765;28;20473;-69
2021/12/17 14:22:26;;;;;;;18.92;17.13;;;4.20;99.90;;;;;;4974137;28;20030;-72
2021/12/17 14:24:52;;;;;;;15.80;14.23;;;4.30;99.90;;;;;;4957709;28;20050;-72
2021/12/17 14:27:18;;;;;;;13.02;11.80;;;4.20;99.90;;;;;;4954550;28;20035;-72
2021/12/17 14:29:43;;;;;;;10.02;9.10;;;4.30;99.90;;;;;;4954536;28;20130;-72
2021/12/17 14:32:18;;;;;;;10.07;9.18;;;4.10;99.90;;;;;;4978620;28;20118;-72
2021/12/17 14:34:43;;;;;;;12.02;10.90;;;4.10;99.90;;;;;;4955726;28;20557;-72
2021/12/17 14:37:09;;;;;;;11.30;10.20;;;4.10;99.90;;;;;;4954530;28;20031;-72
2021/12/17 14:39:37;;;;;;;11.82;10.73;;;4.10;99.90;;;;;;4966245;28;20054;-72
2021/12/17 14:42:05;;;;;;;11.05;10.07;;;4.00;99.90;;;;;;4954340;28;20528;-72
2021/12/17 14:44:55;;;;;;;11.23;10.18;;;4.10;99.90;;;;;;4982779;28;20038;-72
2021/12/17 14:47:27;;;;;;;11.10;10.10;;;4.10;99.90;;;;;;4983512;28;20027;-72
2021/12/17 15:06:02;;;;;;;14.55;13.15;;;3.00;99.90;;;;;;4961091;28;20088;-72
2021/12/17 15:08:28;;;;;;;19.83;17.73;;;3.00;99.90;;;;;;4959591;28;20588;-72
2021/12/17 15:10:55;;;;;;;25.10;20.45;;;3.10;99.90;;;;;;4953914;28;20039;-72
2021/12/17 15:13:20;;;;;;;22.35;19.00;;;3.00;99.90;;;;;;4953712;28;20114;-72
2021/12/17 15:15:46;;;;;;;22.73;18.55;;;3.00;99.90;;;;;;4955101;28;20648;-72
2021/12/17 15:18:16;;;;;;;25.35;20.05;;;2.90;99.90;;;;;;4956227;28;20051;-72
2021/12/17 15:20:46;;;;;;;19.60;17.30;;;3.00;99.90;;;;;;4963002;28;20026;-72
2021/12/17 15:23:12;;;;;;;23.80;19.63;;;2.90;99.90;;;;;;4957508;28;20031;-72
2021/12/17 15:25:39;;;;;;;22.15;19.95;;;2.90;99.90;;;;;;4972853;28;20034;-73
2021/12/17 15:28:05;;;;;;;23.05;20.65;;;2.80;99.90;;;;;;4968159;28;20034;-74
2021/12/17 15:30:33;;;;;;;25.25;22.05;;;2.70;99.90;;;;;;4952518;28;20045;-73
2021/12/17 15:33:00;;;;;;;24.77;22.00;;;2.70;99.90;;;;;;4953616;28;20027;-72
2021/12/17 15:35:27;;;;;;;23.48;20.95;;;2.60;99.90;;;;;;4953439;28;20110;-73
2021/12/17 15:37:54;;;;;;;22.67;20.20;;;2.50;99.90;;;;;;4952518;28;20062;-73
2021/12/17 15:40:21;;;;;;;24.40;21.50;;;2.30;99.90;;;;;;4953647;28;20038;-72
2021/12/17 15:42:48;;;;;;;20.63;18.63;;;2.30;99.90;;;;;;4966901;28;20508;-71